createdAt,value
2023-01-06T00:01:36.525Z,98395.72
2023-01-06T00:04:03.667Z,98399.94
2023-01-06T00:06:31.651Z,98395.64
2023-01-06T00:09:01.821Z,98402.75
2023-01-06T00:11:30.256Z,98400.95
2023-01-06T00:13:57.016Z,98408.23
2023-01-06T00:16:24.262Z,98413.80
2023-01-06T00:18:58.107Z,98418.78
2023-01-06T00:21:25.526Z,98424.14
2023-01-06T00:23:52.267Z,98431.54
2023-01-06T00:26:18.931Z,98430.78
2023-01-06T00:28:45.658Z,98428.53
2023-01-06T00:31:15.434Z,98435.73
2023-01-06T00:33:42.866Z,98440.95
2023-01-06T00:36:11.591Z,98435.96
2023-01-06T00:38:39.225Z,98434.80
2023-01-06T00:41:08.015Z,98430.16
2023-01-06T00:43:34.408Z,98441.65
2023-01-06T00:46:02.092Z,98443.02
2023-01-06T00:48:28.675Z,98447.91
2023-01-06T00:51:01.000Z,98446.34
2023-01-06T00:53:27.441Z,98449.61
2023-01-06T00:56:00.596Z,98453.80
2023-01-06T00:58:31.359Z,98457.44
2023-01-06T01:00:57.928Z,98461.25
2023-01-06T01:03:25.161Z,98460.06
2023-01-06T01:05:51.622Z,98466.73
2023-01-06T01:08:18.059Z,98468.83
2023-01-06T01:10:44.482Z,98471.18
2023-01-06T01:13:11.036Z,98480.09
2023-01-06T01:15:37.604Z,98481.52
2023-01-06T01:18:04.122Z,98484.52
2023-01-06T01:20:30.560Z,98480.91
2023-01-06T01:22:57.094Z,98484.77
2023-01-06T01:25:23.634Z,98487.37
2023-01-06T01:27:50.174Z,98491.42
2023-01-06T01:30:16.681Z,98489.92
2023-01-06T01:32:43.153Z,98493.11
2023-01-06T01:35:10.280Z,98495.26
2023-01-06T01:37:36.801Z,98500.06
2023-01-06T01:40:03.701Z,98498.19
2023-01-06T01:42:30.263Z,98502.42
2023-01-06T01:45:04.808Z,98501.21
2023-01-06T01:47:36.950Z,98505.54
2023-01-06T01:50:19.574Z,98506.79
2023-01-06T01:52:49.063Z,98513.95
2023-01-06T01:55:17.761Z,98516.05
2023-01-06T01:57:52.119Z,98516.24
2023-01-06T02:00:19.230Z,98521.11
2023-01-06T02:02:45.886Z,98518.59
2023-01-06T02:05:16.667Z,98522.02
2023-01-06T02:07:43.375Z,98519.70
2023-01-06T02:10:21.873Z,98524.18
2023-01-06T02:12:52.740Z,98521.44
2023-01-06T02:15:29.641Z,98526.84
2023-01-06T02:18:22.271Z,98529.27
2023-01-06T02:21:02.284Z,98526.76
2023-01-06T02:23:38.622Z,98526.52
2023-01-06T02:26:29.523Z,98529.49
2023-01-06T02:29:19.101Z,98538.81
2023-01-06T02:31:58.853Z,98539.22
2023-01-06T02:34:37.624Z,98546.21
2023-01-06T02:37:15.881Z,98552.48
2023-01-06T02:39:47.976Z,98545.13
2023-01-06T02:42:17.068Z,98544.19
2023-01-06T02:44:54.363Z,98556.11
2023-01-06T02:47:38.110Z,98559.73
2023-01-06T02:50:27.481Z,98560.62
2023-01-06T02:53:06.101Z,98562.19
2023-01-06T02:55:44.948Z,98566.70
2023-01-06T02:58:46.802Z,98567.13
2023-01-06T03:01:25.509Z,98573.11
2023-01-06T03:03:54.602Z,98575.52
2023-01-06T03:06:29.877Z,98576.64
2023-01-06T03:08:58.286Z,98582.35
2023-01-06T03:11:31.229Z,98581.98
2023-01-06T03:14:41.880Z,98573.85
2023-01-06T03:17:08.448Z,98582.15
2023-01-06T03:19:35.107Z,98586.91
2023-01-06T03:22:03.002Z,98585.60
2023-01-06T03:24:29.955Z,98581.13
2023-01-06T03:26:57.021Z,98583.52
2023-01-06T03:29:23.907Z,98595.37
2023-01-06T03:32:26.224Z,98598.25
2023-01-06T03:35:17.135Z,98599.58
2023-01-06T03:38:13.211Z,98602.30
2023-01-06T03:40:54.974Z,98604.17
2023-01-06T03:44:02.033Z,98605.54
2023-01-06T03:46:38.284Z,98604.68
2023-01-06T03:49:09.319Z,98608.05
2023-01-06T03:51:53.746Z,98608.27
2023-01-06T03:54:38.808Z,98604.21
2023-01-06T03:57:18.561Z,98603.86
2023-01-06T03:59:49.707Z,98601.98
2023-01-06T04:02:20.571Z,98601.77
2023-01-06T04:05:14.072Z,98601.94
2023-01-06T04:07:42.730Z,98606.05
2023-01-06T04:10:11.929Z,98603.16
2023-01-06T04:12:38.566Z,98602.34
2023-01-06T04:15:13.578Z,98596.49
2023-01-06T04:17:41.481Z,98600.30
2023-01-06T04:20:10.863Z,98600.11
2023-01-06T04:22:37.437Z,98606.67
2023-01-06T04:25:05.308Z,98609.58
2023-01-06T04:27:31.947Z,98612.49
2023-01-06T04:29:58.693Z,98613.88
2023-01-06T04:32:25.552Z,98616.95
2023-01-06T04:34:52.081Z,98622.61
2023-01-06T04:37:21.521Z,98620.94
2023-01-06T04:39:48.239Z,98624.20
2023-01-06T04:42:14.786Z,98622.50
2023-01-06T04:44:41.419Z,98629.85
2023-01-06T04:47:09.600Z,98636.22
2023-01-06T04:49:36.140Z,98639.65
2023-01-06T04:52:02.691Z,98648.59
2023-01-06T04:54:29.126Z,98657.42
2023-01-06T04:56:55.549Z,98664.48
2023-01-06T04:59:22.087Z,98671.02
2023-01-06T05:01:48.857Z,98671.75
2023-01-06T05:04:15.462Z,98675.23
2023-01-06T05:06:42.069Z,98675.92
2023-01-06T05:09:08.557Z,98682.67
2023-01-06T05:11:35.406Z,98684.59
2023-01-06T05:14:01.954Z,98686.34
2023-01-06T05:16:31.014Z,98687.79
2023-01-06T05:18:58.485Z,98688.99
2023-01-06T05:21:27.546Z,98689.35
2023-01-06T05:23:54.865Z,98689.55
2023-01-06T05:26:23.670Z,98692.52
2023-01-06T05:28:51.019Z,98698.22
2023-01-06T05:31:18.014Z,98702.02
2023-01-06T05:33:45.427Z,98702.40
2023-01-06T05:36:15.373Z,98699.99
2023-01-06T05:38:42.489Z,98701.73
2023-01-06T05:41:09.610Z,98703.81
2023-01-06T05:43:36.714Z,98710.34
2023-01-06T05:46:08.165Z,98707.27
2023-01-06T05:48:34.563Z,98715.38
2023-01-06T05:51:03.455Z,98718.83
2023-01-06T05:53:34.717Z,98717.83
2023-01-06T05:56:10.834Z,98714.24
2023-01-06T05:58:38.107Z,98717.20
2023-01-06T06:01:05.117Z,98713.95
2023-01-06T06:03:32.820Z,98722.40
2023-01-06T06:06:04.554Z,98721.55
2023-01-06T06:08:31.102Z,98724.84
2023-01-06T06:11:03.341Z,98720.24
2023-01-06T06:13:30.031Z,98720.45
2023-01-06T06:16:11.279Z,98723.22
2023-01-06T06:18:39.063Z,98734.89
2023-01-06T06:21:06.118Z,98735.27
2023-01-06T06:23:32.688Z,98736.95
2023-01-06T06:25:59.132Z,98738.66
2023-01-06T06:28:25.567Z,98746.86
2023-01-06T06:30:53.146Z,98747.05
2023-01-06T06:33:20.733Z,98748.06
2023-01-06T06:35:57.137Z,98750.64
2023-01-06T06:38:23.674Z,98752.20
2023-01-06T06:40:50.123Z,98749.44
2023-01-06T06:43:17.068Z,98756.98
2023-01-06T06:45:47.992Z,98760.73
2023-01-06T06:48:15.545Z,98765.19
2023-01-06T06:50:42.054Z,98768.80
2023-01-06T06:53:08.863Z,98773.41
2023-01-06T06:55:35.296Z,98779.93
2023-01-06T06:58:01.767Z,98781.13
2023-01-06T07:00:28.485Z,98790.21
2023-01-06T07:02:55.053Z,98792.92
2023-01-06T07:05:21.679Z,98799.45
2023-01-06T07:07:48.204Z,98797.55
2023-01-06T07:10:16.690Z,98797.48
2023-01-06T07:12:43.125Z,98799.70
2023-01-06T07:15:10.083Z,98798.11
2023-01-06T07:17:36.619Z,98798.27
2023-01-06T07:20:03.497Z,98804.07
2023-01-06T07:22:30.001Z,98803.34
2023-01-06T07:24:56.547Z,98804.31
2023-01-06T07:27:23.087Z,98810.98
2023-01-06T07:29:49.739Z,98809.75
2023-01-06T07:32:16.266Z,98808.02
2023-01-06T07:34:42.799Z,98810.21
2023-01-06T07:37:09.840Z,98812.90
2023-01-06T07:39:36.299Z,98814.27
2023-01-06T07:42:02.765Z,98817.70
2023-01-06T07:44:29.378Z,98818.73
2023-01-06T07:46:55.793Z,98816.33
2023-01-06T07:49:22.208Z,98815.27
2023-01-06T07:51:48.691Z,98814.86
2023-01-06T07:54:15.332Z,98814.56
2023-01-06T07:56:41.870Z,98814.88
2023-01-06T07:59:08.419Z,98815.55
2023-01-06T08:01:34.997Z,98819.28
2023-01-06T08:04:01.657Z,98824.58
2023-01-06T08:06:28.363Z,98825.24
2023-01-06T08:08:54.943Z,98826.73
2023-01-06T08:11:21.739Z,98832.39
2023-01-06T08:13:48.255Z,98837.53
2023-01-06T08:16:14.742Z,98841.13
2023-01-06T08:18:41.440Z,98844.87
2023-01-06T08:21:10.375Z,98846.23
2023-01-06T08:23:38.835Z,98842.74
2023-01-06T08:26:08.387Z,98845.77
2023-01-06T08:28:35.574Z,98848.29
2023-01-06T08:31:02.997Z,98850.68
2023-01-06T08:33:29.521Z,98844.76
2023-01-06T08:36:00.292Z,98845.08
2023-01-06T08:38:27.487Z,98846.03
2023-01-06T08:40:55.089Z,98844.55
2023-01-06T08:43:21.902Z,98847.66
2023-01-06T08:45:48.946Z,98844.23
2023-01-06T08:48:16.108Z,98845.89
2023-01-06T08:50:43.874Z,98841.92
2023-01-06T08:53:11.444Z,98848.17
2023-01-06T08:55:39.684Z,98851.09
2023-01-06T08:58:06.973Z,98861.13
2023-01-06T09:00:33.618Z,98861.59
2023-01-06T09:03:00.264Z,98862.05
2023-01-06T09:05:27.655Z,98866.34
2023-01-06T09:07:54.078Z,98872.40
2023-01-06T09:10:21.519Z,98871.69
2023-01-06T09:12:50.204Z,98862.92
2023-01-06T09:15:17.316Z,98856.58
2023-01-06T09:17:44.105Z,98853.16
2023-01-06T09:20:11.281Z,98847.30
2023-01-06T09:22:38.002Z,98848.52
2023-01-06T09:25:05.129Z,98851.93
2023-01-06T09:27:31.699Z,98848.94
2023-01-06T09:29:58.243Z,98845.98
2023-01-06T09:32:24.660Z,98845.33
2023-01-06T09:34:51.233Z,98840.67
2023-01-06T09:37:17.804Z,98846.27
2023-01-06T09:39:44.407Z,98846.98
2023-01-06T09:42:24.473Z,98839.45
2023-01-06T09:45:26.042Z,98832.95
2023-01-06T09:47:58.374Z,98822.98
2023-01-06T09:50:46.481Z,98827.69
2023-01-06T09:53:15.672Z,98819.89
2023-01-06T09:55:52.552Z,98814.08
2023-01-06T09:58:25.223Z,98809.45
2023-01-06T10:00:55.209Z,98805.33
2023-01-06T10:03:28.087Z,98803.49
2023-01-06T10:06:30.655Z,98798.71
2023-01-06T10:09:28.905Z,98790.90
2023-01-06T10:12:08.901Z,98787.36
2023-01-06T10:14:51.695Z,98788.58
2023-01-06T10:17:49.250Z,98781.96
2023-01-06T10:20:40.885Z,98780.26
2023-01-06T10:23:16.537Z,98775.32
2023-01-06T10:25:50.228Z,98773.17
2023-01-06T10:28:24.026Z,98769.80
2023-01-06T10:30:54.376Z,98770.00
2023-01-06T10:33:30.675Z,98770.36
2023-01-06T10:35:59.040Z,98764.34
2023-01-06T10:38:39.615Z,98769.93
2023-01-06T10:41:22.031Z,98769.73
2023-01-06T10:43:48.567Z,98766.45
2023-01-06T10:46:16.485Z,98765.89
2023-01-06T10:48:44.093Z,98764.02
2023-01-06T10:51:39.940Z,98763.26
2023-01-06T10:54:15.689Z,98769.41
2023-01-06T10:56:48.671Z,98757.13
2023-01-06T10:59:15.322Z,98756.18
2023-01-06T11:01:49.566Z,98749.13
2023-01-06T11:04:16.484Z,98747.02
2023-01-06T11:06:54.671Z,98745.31
2023-01-06T11:09:32.341Z,98743.23
2023-01-06T11:12:09.603Z,98738.69
2023-01-06T11:14:37.063Z,98741.61
2023-01-06T11:17:16.001Z,98736.73
2023-01-06T11:19:45.421Z,98731.35
2023-01-06T11:22:32.218Z,98726.31
2023-01-06T11:24:59.054Z,98723.73
2023-01-06T11:27:25.798Z,98723.38
2023-01-06T11:29:52.340Z,98730.64
2023-01-06T11:32:25.823Z,98730.97
2023-01-06T11:35:00.679Z,98725.67
2023-01-06T11:37:36.460Z,98725.39
2023-01-06T11:40:21.823Z,98727.35
2023-01-06T11:42:51.712Z,98726.67
2023-01-06T11:45:59.607Z,98729.55
2023-01-06T11:48:36.009Z,98726.69
2023-01-06T11:51:07.879Z,98725.66
2023-01-06T11:53:35.166Z,98724.64
2023-01-06T11:56:03.227Z,98718.14
2023-01-06T11:58:43.062Z,98714.30
2023-01-06T12:01:48.206Z,98708.51
2023-01-06T12:04:30.115Z,98700.15
2023-01-06T12:07:03.383Z,98698.02
2023-01-06T12:09:35.277Z,98705.86
2023-01-06T12:12:07.458Z,98701.66
2023-01-06T12:14:39.634Z,98698.20
2023-01-06T12:17:34.127Z,98697.96
2023-01-06T12:20:13.507Z,98699.31
2023-01-06T12:22:49.128Z,98703.09
2023-01-06T12:25:23.334Z,98701.84
2023-01-06T12:27:56.509Z,98707.84
2023-01-06T12:30:54.131Z,98708.54
2023-01-06T12:33:23.407Z,98710.70
2023-01-06T12:35:54.406Z,98708.17
2023-01-06T12:38:46.180Z,98708.02
2023-01-06T12:41:36.265Z,98704.27
2023-01-06T12:44:32.201Z,98699.67
2023-01-06T12:46:58.842Z,98697.59
2023-01-06T12:49:50.683Z,98699.88
2023-01-06T12:52:40.160Z,98696.02
2023-01-06T12:55:09.840Z,98692.23
2023-01-06T12:57:51.555Z,98688.15
2023-01-06T13:00:34.919Z,98678.74
2023-01-06T13:03:37.167Z,98672.84
2023-01-06T13:06:13.142Z,98682.48
2023-01-06T13:09:01.164Z,98683.89
2023-01-06T13:11:51.739Z,98680.34
2023-01-06T13:15:03.662Z,98673.99
2023-01-06T13:17:38.449Z,98675.77
2023-01-06T13:20:14.513Z,98676.13
2023-01-06T13:23:21.512Z,98673.66
2023-01-06T13:25:57.020Z,98672.48
2023-01-06T13:29:01.072Z,98669.55
2023-01-06T13:31:30.584Z,98667.88
2023-01-06T13:34:19.617Z,98665.27
2023-01-06T13:37:17.481Z,98668.46
2023-01-06T13:39:54.075Z,98674.30
2023-01-06T13:42:35.346Z,98674.54
2023-01-06T13:45:04.646Z,98670.08
2023-01-06T13:47:31.387Z,98670.22
2023-01-06T13:49:58.801Z,98677.98
2023-01-06T13:52:28.951Z,98684.36
2023-01-06T13:55:17.838Z,98692.69
2023-01-06T13:57:44.375Z,98691.73
2023-01-06T14:00:10.815Z,98685.04
2023-01-06T14:02:37.518Z,98675.39
2023-01-06T14:05:24.795Z,98668.86
2023-01-06T14:07:57.406Z,98668.98
2023-01-06T14:10:34.966Z,98662.67
2023-01-06T14:13:04.570Z,98653.84
2023-01-06T14:15:33.568Z,98647.16
2023-01-06T14:18:02.208Z,98632.23
2023-01-06T14:20:37.742Z,98622.13
2023-01-06T14:23:18.489Z,98623.52
2023-01-06T14:25:51.378Z,98632.16
2023-01-06T14:28:38.170Z,98635.80
2023-01-06T14:31:26.760Z,98631.88
2023-01-06T14:33:56.978Z,98634.95
2023-01-06T14:36:25.415Z,98632.55
2023-01-06T14:38:57.961Z,98635.16
2023-01-06T14:41:33.091Z,98636.54
2023-01-06T14:44:05.521Z,98634.98
2023-01-06T14:46:38.735Z,98628.96
2023-01-06T14:49:13.187Z,98629.30
2023-01-06T14:51:44.139Z,98626.04
2023-01-06T14:54:26.855Z,98624.82
2023-01-06T14:56:58.941Z,98617.08
2023-01-06T14:59:26.501Z,98616.73
2023-01-06T15:02:09.129Z,98617.02
2023-01-06T15:04:35.971Z,98617.52
2023-01-06T15:07:20.098Z,98614.05
2023-01-06T15:09:48.835Z,98607.68
2023-01-06T15:12:29.269Z,98602.48
2023-01-06T15:14:56.457Z,98590.27
2023-01-06T15:17:23.361Z,98585.23
2023-01-06T15:19:52.749Z,98580.20
2023-01-06T15:22:24.155Z,98576.65
2023-01-06T15:24:51.292Z,98577.44
2023-01-06T15:27:19.067Z,98572.06
2023-01-06T15:29:53.807Z,98574.05
2023-01-06T15:32:22.092Z,98578.10
2023-01-06T15:34:49.716Z,98577.50
2023-01-06T15:37:22.796Z,98579.81
2023-01-06T15:39:50.491Z,98583.16
2023-01-06T15:42:21.657Z,98582.91
2023-01-06T15:44:59.440Z,98591.45
2023-01-06T15:47:32.854Z,98600.50
2023-01-06T15:50:03.584Z,98601.67
2023-01-06T15:52:35.382Z,98601.98
2023-01-06T15:55:05.463Z,98601.07
2023-01-06T15:57:37.205Z,98590.36
2023-01-06T16:00:19.136Z,98584.25
2023-01-06T16:02:48.136Z,98582.27
2023-01-06T16:05:32.756Z,98589.62
2023-01-06T16:08:04.779Z,98593.04
2023-01-06T16:10:36.357Z,98599.45
2023-01-06T16:13:24.153Z,98601.05
2023-01-06T16:16:02.195Z,98602.96
2023-01-06T16:18:34.029Z,98602.46
2023-01-06T16:21:14.239Z,98597.13
2023-01-06T16:23:41.257Z,98602.31
2023-01-06T16:26:09.614Z,98598.05
2023-01-06T16:28:42.477Z,98589.98
2023-01-06T16:31:11.735Z,98586.05
2023-01-06T16:33:45.539Z,98583.27
2023-01-06T16:36:17.097Z,98576.35
2023-01-06T16:38:44.344Z,98575.12
2023-01-06T16:41:19.192Z,98578.67
2023-01-06T16:43:46.654Z,98577.22
2023-01-06T16:46:18.650Z,98576.79
2023-01-06T16:48:45.136Z,98570.70
2023-01-06T16:51:18.642Z,98562.55
2023-01-06T16:53:46.025Z,98553.35
2023-01-06T16:56:19.426Z,98552.95
2023-01-06T16:58:46.417Z,98555.33
2023-01-06T17:01:16.637Z,98554.48
2023-01-06T17:03:43.731Z,98557.23
2023-01-06T17:06:28.425Z,98556.55
2023-01-06T17:09:00.688Z,98556.20
2023-01-06T17:11:29.585Z,98559.11
2023-01-06T17:14:05.953Z,98556.88
2023-01-06T17:16:35.991Z,98557.94
2023-01-06T17:19:13.777Z,98545.77
2023-01-06T17:21:41.068Z,98549.05
2023-01-06T17:24:18.885Z,98550.74
2023-01-06T17:27:00.330Z,98545.22
2023-01-06T17:29:30.554Z,98542.80
2023-01-06T17:32:01.089Z,98546.00
2023-01-06T17:34:32.466Z,98539.95
2023-01-06T17:37:03.540Z,98542.98
2023-01-06T17:39:40.073Z,98539.33
2023-01-06T17:42:12.536Z,98538.48
2023-01-06T17:44:44.998Z,98536.74
2023-01-06T17:47:23.436Z,98539.13
2023-01-06T17:50:00.992Z,98540.46
2023-01-06T17:52:39.443Z,98543.38
2023-01-06T17:55:08.753Z,98540.45
2023-01-06T17:57:35.391Z,98539.75
2023-01-06T18:00:04.713Z,98545.77
2023-01-06T18:02:40.055Z,98543.11
2023-01-06T18:05:24.809Z,98542.02
2023-01-06T18:08:00.056Z,98535.61
2023-01-06T18:10:26.519Z,98532.64
2023-01-06T18:12:56.604Z,98537.73
2023-01-06T18:15:35.384Z,98532.58
2023-01-06T18:18:32.162Z,98530.88
2023-01-06T18:21:10.811Z,98533.90
2023-01-06T18:23:37.320Z,98532.02
2023-01-06T18:26:26.334Z,98532.39
2023-01-06T18:29:13.718Z,98532.23
2023-01-06T18:31:41.108Z,98535.64
2023-01-06T18:34:40.928Z,98528.55
2023-01-06T18:37:07.771Z,98531.62
2023-01-06T18:39:41.505Z,98536.96
2023-01-06T18:42:27.173Z,98533.21
2023-01-06T18:45:22.063Z,98538.91
2023-01-06T18:47:59.355Z,98545.14
2023-01-06T18:50:48.376Z,98539.33
2023-01-06T18:53:14.990Z,98537.95
2023-01-06T18:55:47.656Z,98533.52
2023-01-06T18:58:40.430Z,98539.31
2023-01-06T19:01:34.437Z,98535.63
2023-01-06T19:04:22.905Z,98533.86
2023-01-06T19:06:52.752Z,98531.80
2023-01-06T19:09:37.530Z,98528.81
2023-01-06T19:12:15.635Z,98525.69
2023-01-06T19:14:46.837Z,98522.72
2023-01-06T19:17:27.031Z,98521.73
2023-01-06T19:19:55.158Z,98526.22
2023-01-06T19:22:26.955Z,98530.49
2023-01-06T19:25:07.044Z,98524.08
2023-01-06T19:27:43.475Z,98524.38
2023-01-06T19:30:12.827Z,98520.42
2023-01-06T19:32:40.081Z,98516.61
2023-01-06T19:35:16.077Z,98517.79
2023-01-06T19:37:42.577Z,98516.17
2023-01-06T19:40:25.410Z,98514.55
2023-01-06T19:42:57.570Z,98511.88
2023-01-06T19:45:32.458Z,98511.14
2023-01-06T19:48:00.490Z,98507.66
2023-01-06T19:50:27.034Z,98506.60
2023-01-06T19:52:58.855Z,98505.88
2023-01-06T19:55:28.801Z,98507.34
2023-01-06T19:57:58.673Z,98509.65
2023-01-06T20:00:31.548Z,98507.84
2023-01-06T20:03:00.863Z,98514.64
2023-01-06T20:05:28.989Z,98512.98
2023-01-06T20:07:55.551Z,98513.66
2023-01-06T20:10:22.190Z,98519.90
2023-01-06T20:12:49.424Z,98518.62
2023-01-06T20:15:16.278Z,98517.08
2023-01-06T20:17:42.903Z,98512.41
2023-01-06T20:20:10.096Z,98512.24
2023-01-06T20:22:36.833Z,98512.20
2023-01-06T20:25:04.079Z,98513.82
2023-01-06T20:27:30.734Z,98513.39
2023-01-06T20:29:57.257Z,98511.27
2023-01-06T20:32:23.797Z,98514.45
2023-01-06T20:34:50.252Z,98514.02
2023-01-06T20:37:16.666Z,98510.73
2023-01-06T20:39:43.223Z,98515.62
2023-01-06T20:42:11.908Z,98512.98
2023-01-06T20:44:39.586Z,98514.48
2023-01-06T20:47:06.108Z,98513.88
2023-01-06T20:49:32.563Z,98515.53
2023-01-06T20:51:59.066Z,98514.10
2023-01-06T20:54:26.336Z,98508.98
2023-01-06T20:56:52.756Z,98510.64
2023-01-06T20:59:19.373Z,98513.67
2023-01-06T21:01:46.087Z,98513.43
2023-01-06T21:04:12.885Z,98510.06
2023-01-06T21:06:39.448Z,98509.00
2023-01-06T21:09:06.078Z,98517.02
2023-01-06T21:11:32.521Z,98518.20
2023-01-06T21:13:59.066Z,98514.88
2023-01-06T21:16:25.853Z,98517.90
2023-01-06T21:18:52.555Z,98522.54
2023-01-06T21:21:18.979Z,98525.80
2023-01-06T21:23:45.643Z,98523.05
2023-01-06T21:26:12.278Z,98518.08
2023-01-06T21:28:38.853Z,98517.04
2023-01-06T21:31:05.811Z,98512.40
2023-01-06T21:33:32.335Z,98516.86
2023-01-06T21:35:59.469Z,98514.43
2023-01-06T21:38:26.214Z,98514.25
2023-01-06T21:40:52.662Z,98522.02
2023-01-06T21:43:19.197Z,98526.26
2023-01-06T21:45:45.888Z,98530.34
2023-01-06T21:48:13.455Z,98532.52
2023-01-06T21:50:44.932Z,98534.20
2023-01-06T21:53:13.653Z,98536.85
2023-01-06T21:55:40.147Z,98538.08
2023-01-06T21:58:06.595Z,98540.98
2023-01-06T22:00:33.078Z,98545.88
2023-01-06T22:02:59.552Z,98548.92
2023-01-06T22:05:26.137Z,98551.31
2023-01-06T22:07:55.468Z,98554.67
2023-01-06T22:10:24.554Z,98554.23
2023-01-06T22:12:53.576Z,98560.69
2023-01-06T22:15:21.947Z,98561.84
2023-01-06T22:17:49.527Z,98557.10
2023-01-06T22:20:16.551Z,98557.59
2023-01-06T22:22:43.628Z,98558.27
2023-01-06T22:25:10.289Z,98559.34
2023-01-06T22:27:36.852Z,98557.69
2023-01-06T22:30:04.747Z,98564.25
2023-01-06T22:32:31.218Z,98564.13
2023-01-06T22:34:57.647Z,98570.38
2023-01-06T22:37:24.089Z,98574.31
2023-01-06T22:39:50.496Z,98574.80
2023-01-06T22:42:16.941Z,98574.04
2023-01-06T22:44:43.448Z,98578.50
2023-01-06T22:47:09.980Z,98584.79
2023-01-06T22:49:36.644Z,98585.45
2023-01-06T22:52:03.184Z,98588.51
2023-01-06T22:54:29.708Z,98590.09
2023-01-06T22:56:56.249Z,98588.36
2023-01-06T22:59:22.698Z,98584.55
2023-01-06T23:01:49.199Z,98585.27
2023-01-06T23:04:15.747Z,98591.65
2023-01-06T23:06:42.201Z,98594.39
2023-01-06T23:09:08.759Z,98595.88
2023-01-06T23:11:35.939Z,98592.55
2023-01-06T23:14:02.380Z,98599.38
2023-01-06T23:16:28.800Z,98598.98
2023-01-06T23:18:55.426Z,98598.08
2023-01-06T23:21:24.282Z,98596.48
2023-01-06T23:23:51.918Z,98594.88
2023-01-06T23:26:21.417Z,98598.81
2023-01-06T23:28:48.158Z,98599.83
2023-01-06T23:31:18.440Z,98602.10
2023-01-06T23:33:47.614Z,98597.32
2023-01-06T23:36:15.889Z,98602.84
2023-01-06T23:38:43.016Z,98604.94
2023-01-06T23:41:15.687Z,98603.55
2023-01-06T23:43:43.256Z,98601.65
2023-01-06T23:46:22.515Z,98605.55
2023-01-06T23:48:49.593Z,98603.64
2023-01-06T23:51:16.989Z,98609.61
2023-01-06T23:53:44.247Z,98605.91
2023-01-06T23:56:22.116Z,98603.94
2023-01-06T23:58:51.129Z,98604.88
